createdAt,value
2023-05-03T00:00:33.851Z,38.90
2023-05-03T00:03:09.766Z,39.00
2023-05-03T00:05:45.897Z,39.00
2023-05-03T00:08:22.107Z,39.00
2023-05-03T00:11:00.878Z,39.10
2023-05-03T00:13:37.373Z,39.10
2023-05-03T00:16:13.282Z,39.30
2023-05-03T00:18:49.459Z,39.40
2023-05-03T00:21:25.435Z,39.30
2023-05-03T00:24:01.341Z,39.40
2023-05-03T00:26:37.235Z,39.40
2023-05-03T00:29:13.409Z,39.40
2023-05-03T00:31:49.320Z,39.80
2023-05-03T00:34:25.206Z,39.40
2023-05-03T00:37:01.225Z,39.40
2023-05-03T00:39:37.141Z,39.60
2023-05-03T00:42:13.592Z,39.50
2023-05-03T00:44:49.534Z,39.50
2023-05-03T00:47:25.653Z,39.50
2023-05-03T00:50:02.696Z,39.60
2023-05-03T00:52:40.924Z,39.60
2023-05-03T00:55:17.879Z,39.70
2023-05-03T00:57:53.805Z,39.50
2023-05-03T01:00:29.836Z,39.60
2023-05-03T01:03:05.842Z,39.70
2023-05-03T01:06:43.824Z,39.80
2023-05-03T01:09:48.333Z,39.80
2023-05-03T01:13:00.640Z,40.00
2023-05-03T01:15:50.097Z,40.10
2023-05-03T01:18:32.404Z,40.20
2023-05-03T01:21:10.372Z,40.40
2023-05-03T01:24:18.151Z,40.40
2023-05-03T01:26:54.080Z,40.70
2023-05-03T01:29:30.064Z,40.60
2023-05-03T01:32:16.055Z,40.70
2023-05-03T01:35:05.394Z,40.90
2023-05-03T01:37:42.514Z,41.00
2023-05-03T01:40:21.249Z,41.20
2023-05-03T01:42:57.892Z,41.40
2023-05-03T01:45:33.875Z,41.50
2023-05-03T01:48:18.822Z,41.70
2023-05-03T01:50:54.701Z,41.80
2023-05-03T01:53:30.611Z,42.00
2023-05-03T01:56:08.376Z,42.00
2023-05-03T01:58:44.556Z,42.10
2023-05-03T02:01:20.559Z,42.20
2023-05-03T02:03:56.508Z,42.20
2023-05-03T02:06:32.399Z,42.40
2023-05-03T02:09:08.821Z,42.40
2023-05-03T02:11:44.797Z,42.70
2023-05-03T02:14:21.920Z,43.00
2023-05-03T02:16:57.829Z,43.10
2023-05-03T02:19:33.799Z,43.40
2023-05-03T02:22:09.634Z,43.80
2023-05-03T02:24:45.853Z,44.10
2023-05-03T02:27:21.758Z,44.40
2023-05-03T02:29:57.584Z,44.60
2023-05-03T02:32:33.566Z,44.90
2023-05-03T02:35:09.885Z,45.10
2023-05-03T02:37:45.900Z,45.40
2023-05-03T02:40:22.116Z,45.50
2023-05-03T02:42:58.005Z,46.10
2023-05-03T02:45:37.425Z,45.90
2023-05-03T02:48:13.412Z,46.10
2023-05-03T02:50:49.680Z,46.20
2023-05-03T02:53:25.626Z,46.20
2023-05-03T02:56:03.751Z,46.50
2023-05-03T02:58:40.190Z,47.90
2023-05-03T03:01:16.795Z,48.30
2023-05-03T03:03:52.877Z,48.50
2023-05-03T03:06:28.848Z,48.80
2023-05-03T03:09:05.827Z,48.90
2023-05-03T03:11:41.805Z,49.20
2023-05-03T03:14:18.395Z,49.40
2023-05-03T03:16:54.286Z,49.70
2023-05-03T03:19:30.244Z,50.10
2023-05-03T03:22:06.579Z,50.60
2023-05-03T03:24:43.793Z,50.90
2023-05-03T03:27:21.486Z,51.10
2023-05-03T03:29:57.363Z,51.60
2023-05-03T03:32:34.281Z,51.80
2023-05-03T03:35:13.342Z,52.30
2023-05-03T03:37:49.280Z,52.70
2023-05-03T03:40:25.551Z,52.80
2023-05-03T03:43:04.213Z,53.10
2023-05-03T03:45:40.084Z,53.40
2023-05-03T03:48:16.906Z,53.80
2023-05-03T03:50:52.860Z,54.20
2023-05-03T03:53:32.645Z,54.50
2023-05-03T03:56:09.008Z,54.90
2023-05-03T03:58:45.568Z,55.30
2023-05-03T04:01:22.086Z,55.70
2023-05-03T04:03:58.471Z,55.80
2023-05-03T04:06:34.518Z,56.00
2023-05-03T04:09:17.100Z,56.10
2023-05-03T04:11:54.143Z,56.30
2023-05-03T04:14:30.102Z,56.40
2023-05-03T04:17:07.222Z,56.40
2023-05-03T04:19:43.714Z,56.80
2023-05-03T04:22:22.494Z,56.90
2023-05-03T04:25:01.085Z,56.90
2023-05-03T04:27:38.597Z,57.10
2023-05-03T04:30:15.611Z,57.30
2023-05-03T04:32:55.401Z,57.30
2023-05-03T04:35:33.008Z,57.40
2023-05-03T04:38:13.222Z,57.70
2023-05-03T04:40:49.730Z,57.50
2023-05-03T04:43:26.706Z,57.40
2023-05-03T04:46:04.743Z,57.40
2023-05-03T04:48:40.869Z,57.20
2023-05-03T04:51:17.086Z,57.00
2023-05-03T04:53:54.495Z,56.80
2023-05-03T04:56:34.929Z,56.70
2023-05-03T04:59:19.511Z,56.50
2023-05-03T05:01:56.177Z,56.30
2023-05-03T05:04:32.871Z,56.10
2023-05-03T05:07:10.267Z,56.00
2023-05-03T05:09:46.883Z,55.90
2023-05-03T05:12:22.831Z,55.80
2023-05-03T05:14:58.713Z,55.80
2023-05-03T05:17:35.065Z,56.00
2023-05-03T05:20:13.158Z,55.80
2023-05-03T05:22:53.973Z,56.10
2023-05-03T05:25:29.918Z,55.90
2023-05-03T05:28:07.013Z,56.10
2023-05-03T05:30:44.013Z,55.90
2023-05-03T05:33:22.697Z,55.60
2023-05-03T05:35:59.749Z,55.90
2023-05-03T05:38:35.973Z,55.70
2023-05-03T05:41:12.075Z,55.60
2023-05-03T05:43:50.163Z,55.50
2023-05-03T05:46:26.204Z,55.40
2023-05-03T05:49:03.633Z,55.50
2023-05-03T05:51:39.995Z,55.30
2023-05-03T05:54:16.236Z,55.20
2023-05-03T05:56:53.369Z,55.10
2023-05-03T05:59:31.397Z,54.80
2023-05-03T06:02:18.796Z,54.60
2023-05-03T06:04:56.350Z,54.40
2023-05-03T06:07:32.369Z,53.00
2023-05-03T06:10:08.900Z,52.80
2023-05-03T06:12:46.605Z,52.70
2023-05-03T06:15:30.006Z,52.80
2023-05-03T06:18:06.857Z,52.80
2023-05-03T06:20:43.039Z,52.60
2023-05-03T06:23:19.307Z,52.10
2023-05-03T06:25:55.386Z,51.90
2023-05-03T06:28:32.628Z,51.40
2023-05-03T06:31:08.947Z,51.30
2023-05-03T06:33:46.112Z,50.80
2023-05-03T06:36:22.125Z,50.90
2023-05-03T06:38:58.134Z,50.80
2023-05-03T06:41:34.158Z,50.70
2023-05-03T06:44:10.833Z,50.40
2023-05-03T06:46:47.146Z,50.10
2023-05-03T06:49:24.430Z,49.70
2023-05-03T06:52:00.339Z,49.20
2023-05-03T06:54:36.224Z,48.70
2023-05-03T06:57:12.350Z,48.20
2023-05-03T06:59:49.277Z,48.00
2023-05-03T07:02:26.969Z,47.60
2023-05-03T07:05:03.154Z,47.40
2023-05-03T07:07:39.286Z,47.20
2023-05-03T07:10:15.364Z,46.90
2023-05-03T07:12:51.380Z,46.70
2023-05-03T07:15:27.274Z,46.40
2023-05-03T07:18:03.696Z,46.20
2023-05-03T07:20:39.632Z,45.80
2023-05-03T07:23:15.808Z,45.30
2023-05-03T07:25:53.926Z,45.10
2023-05-03T07:28:29.976Z,44.60
2023-05-03T07:31:05.876Z,44.40
2023-05-03T07:33:42.045Z,44.40
2023-05-03T07:36:17.956Z,44.20
2023-05-03T07:38:53.800Z,44.10
2023-05-03T07:41:29.675Z,44.00
2023-05-03T07:44:05.603Z,43.80
2023-05-03T07:46:41.488Z,43.90
2023-05-03T07:49:17.492Z,43.90
2023-05-03T07:51:53.455Z,43.80
2023-05-03T07:54:29.384Z,43.70
2023-05-03T07:57:06.230Z,43.60
2023-05-03T07:59:43.447Z,43.40
2023-05-03T08:02:19.425Z,43.40
2023-05-03T08:04:56.472Z,43.20
2023-05-03T08:07:32.987Z,43.00
2023-05-03T08:10:09.395Z,42.90
2023-05-03T08:12:48.630Z,42.80
2023-05-03T08:15:24.467Z,42.70
2023-05-03T08:18:00.983Z,42.40
2023-05-03T08:20:36.917Z,41.90
2023-05-03T08:23:13.362Z,41.20
2023-05-03T08:25:49.227Z,40.30
2023-05-03T08:28:25.081Z,40.30
2023-05-03T08:31:03.680Z,40.10
2023-05-03T08:33:40.005Z,40.10
2023-05-03T08:36:15.967Z,40.00
2023-05-03T08:38:51.794Z,39.50
2023-05-03T08:41:30.843Z,39.60
2023-05-03T08:44:11.919Z,39.40
2023-05-03T08:46:47.878Z,38.90
2023-05-03T08:49:24.604Z,38.60
2023-05-03T08:52:02.565Z,38.40
2023-05-03T08:54:39.240Z,37.90
2023-05-03T08:57:16.557Z,37.60
2023-05-03T08:59:54.370Z,37.80
2023-05-03T09:02:30.447Z,38.10
2023-05-03T09:05:34.635Z,38.60
2023-05-03T09:08:13.447Z,38.10
2023-05-03T09:10:49.511Z,38.10
2023-05-03T09:13:31.947Z,38.10
2023-05-03T09:16:07.850Z,37.70
2023-05-03T09:19:00.256Z,37.90
2023-05-03T09:21:36.480Z,37.90
2023-05-03T09:24:21.074Z,37.50
2023-05-03T09:26:58.487Z,37.20
2023-05-03T09:29:35.990Z,36.90
2023-05-03T09:32:12.599Z,37.10
2023-05-03T09:34:48.825Z,36.60
2023-05-03T09:37:38.690Z,36.60
2023-05-03T09:40:18.290Z,36.40
2023-05-03T09:43:12.239Z,36.90
2023-05-03T09:45:48.156Z,36.60
2023-05-03T09:48:26.397Z,36.20
2023-05-03T09:51:05.407Z,35.70
2023-05-03T09:53:43.968Z,36.00
2023-05-03T09:56:20.808Z,36.20
2023-05-03T09:58:56.869Z,36.00
2023-05-03T10:01:36.053Z,35.30
2023-05-03T10:04:12.345Z,35.30
2023-05-03T10:06:50.564Z,35.10
2023-05-03T10:09:40.188Z,34.90
2023-05-03T10:12:19.242Z,35.10
2023-05-03T10:14:57.233Z,34.70
2023-05-03T10:17:47.956Z,34.60
2023-05-03T10:20:26.697Z,34.30
2023-05-03T10:23:06.037Z,34.00
2023-05-03T10:26:09.664Z,34.10
2023-05-03T10:28:45.880Z,33.80
2023-05-03T10:31:50.877Z,33.70
2023-05-03T10:34:32.571Z,33.00
2023-05-03T10:37:11.650Z,32.90
2023-05-03T10:39:47.519Z,32.50
2023-05-03T10:42:26.362Z,32.10
2023-05-03T10:45:04.122Z,32.30
2023-05-03T10:47:40.795Z,32.50
2023-05-03T10:50:16.803Z,32.90
2023-05-03T10:52:52.996Z,32.20
2023-05-03T10:55:29.059Z,32.40
2023-05-03T10:58:08.346Z,32.20
2023-05-03T11:00:44.902Z,32.40
2023-05-03T11:03:57.525Z,32.40
2023-05-03T11:06:37.376Z,32.20
2023-05-03T11:09:14.857Z,32.00
2023-05-03T11:11:50.815Z,32.00
2023-05-03T11:14:27.123Z,31.90
2023-05-03T11:17:03.241Z,31.50
2023-05-03T11:19:39.896Z,31.70
2023-05-03T11:22:15.902Z,31.40
2023-05-03T11:24:52.986Z,30.20
2023-05-03T11:27:28.922Z,30.80
2023-05-03T11:30:08.184Z,31.10
2023-05-03T11:32:45.283Z,30.50
2023-05-03T11:35:24.199Z,30.30
2023-05-03T11:38:00.221Z,30.20
2023-05-03T11:40:39.669Z,30.50
2023-05-03T11:43:15.822Z,30.50
2023-05-03T11:45:56.022Z,30.20
2023-05-03T11:48:33.479Z,30.10
2023-05-03T11:51:13.727Z,30.00
2023-05-03T11:53:51.550Z,30.00
2023-05-03T11:56:28.065Z,30.00
2023-05-03T11:59:04.052Z,29.40
2023-05-03T12:01:41.534Z,29.50
2023-05-03T12:04:17.920Z,29.60
2023-05-03T12:06:54.792Z,29.80
2023-05-03T12:09:32.255Z,29.40
2023-05-03T12:12:10.533Z,28.50
2023-05-03T12:15:03.655Z,28.90
2023-05-03T12:17:43.786Z,29.30
2023-05-03T12:23:09.803Z,28.70
2023-05-03T12:25:49.157Z,29.20
2023-05-03T12:28:26.331Z,29.10
2023-05-03T12:31:04.320Z,29.00
2023-05-03T12:33:43.454Z,29.20
2023-05-03T12:36:21.289Z,29.00
2023-05-03T12:39:02.552Z,28.60
2023-05-03T12:44:23.096Z,28.70
2023-05-03T12:47:01.039Z,28.30
2023-05-03T12:49:38.962Z,28.60
2023-05-03T12:52:35.277Z,28.60
2023-05-03T12:55:12.180Z,28.50
2023-05-03T12:58:12.940Z,28.50
2023-05-03T13:01:15.823Z,27.80
2023-05-03T13:03:55.214Z,28.10
2023-05-03T13:06:43.418Z,28.00
2023-05-03T13:09:21.657Z,28.50
2023-05-03T13:12:03.446Z,27.40
2023-05-03T13:14:39.828Z,26.90
2023-05-03T13:17:16.636Z,27.70
2023-05-03T13:19:53.366Z,27.30
2023-05-03T13:22:29.411Z,27.10
2023-05-03T13:25:07.114Z,26.60
2023-05-03T13:27:44.020Z,27.20
2023-05-03T13:30:21.623Z,26.60
2023-05-03T13:32:57.602Z,26.20
2023-05-03T13:35:33.634Z,25.90
2023-05-03T13:38:09.573Z,25.70
2023-05-03T13:40:45.567Z,26.10
2023-05-03T13:43:21.473Z,25.90
2023-05-03T13:46:05.889Z,25.70
2023-05-03T13:48:42.642Z,25.50
2023-05-03T13:51:18.797Z,24.60
2023-05-03T13:53:55.127Z,24.80
2023-05-03T13:56:35.135Z,25.10
2023-05-03T13:59:14.205Z,25.40
2023-05-03T14:01:51.142Z,25.70
2023-05-03T14:04:28.014Z,25.70
2023-05-03T14:07:04.302Z,25.00
2023-05-03T14:09:42.181Z,25.40
2023-05-03T14:12:18.411Z,25.50
2023-05-03T14:14:54.848Z,24.70
2023-05-03T14:17:32.020Z,25.00
2023-05-03T14:20:11.954Z,24.90
2023-05-03T14:25:38.344Z,25.40
2023-05-03T14:28:14.420Z,25.40
2023-05-03T14:30:51.935Z,24.60
2023-05-03T14:33:28.716Z,25.00
2023-05-03T14:36:10.746Z,24.70
2023-05-03T14:38:47.705Z,25.00
2023-05-03T14:41:23.704Z,24.60
2023-05-03T14:43:59.599Z,24.90
2023-05-03T14:46:35.608Z,25.10
2023-05-03T14:49:11.557Z,24.60
2023-05-03T14:51:48.530Z,24.70
2023-05-03T14:54:25.520Z,24.40
2023-05-03T14:57:02.110Z,24.60
2023-05-03T14:59:38.173Z,24.40
2023-05-03T15:02:15.884Z,23.90
2023-05-03T15:04:52.588Z,24.20
2023-05-03T15:07:28.789Z,24.20
2023-05-03T15:10:06.574Z,23.90
2023-05-03T15:12:42.990Z,24.50
2023-05-03T15:15:18.958Z,23.80
2023-05-03T15:17:56.561Z,24.00
2023-05-03T15:20:32.751Z,24.20
2023-05-03T15:23:08.900Z,24.00
2023-05-03T15:25:44.761Z,24.00
2023-05-03T15:28:21.165Z,24.30
2023-05-03T15:30:57.033Z,24.50
2023-05-03T15:33:44.460Z,24.20
2023-05-03T15:36:20.462Z,24.30
2023-05-03T15:38:56.341Z,24.10
2023-05-03T15:41:32.197Z,23.70
2023-05-03T15:44:09.702Z,23.30
2023-05-03T15:46:45.728Z,24.10
2023-05-03T15:49:22.433Z,23.60
2023-05-03T15:51:58.269Z,23.50
2023-05-03T15:54:34.118Z,23.60
2023-05-03T15:57:10.250Z,23.90
2023-05-03T15:59:46.412Z,23.40
2023-05-03T16:02:22.281Z,23.60
2023-05-03T16:04:58.189Z,23.60
2023-05-03T16:07:34.303Z,23.50
2023-05-03T16:10:10.994Z,23.30
2023-05-03T16:12:46.922Z,22.70
2023-05-03T16:15:22.791Z,22.00
2023-05-03T16:17:58.974Z,22.00
2023-05-03T16:20:34.967Z,21.80
2023-05-03T16:23:10.819Z,21.70
2023-05-03T16:25:47.355Z,22.20
2023-05-03T16:28:23.235Z,22.30
2023-05-03T16:30:59.067Z,22.10
2023-05-03T16:33:35.050Z,22.00
2023-05-03T16:36:10.906Z,22.00
2023-05-03T16:38:46.745Z,21.30
2023-05-03T16:41:22.602Z,21.70
2023-05-03T16:43:58.483Z,21.30
2023-05-03T16:46:36.519Z,21.60
2023-05-03T16:49:12.491Z,21.30
2023-05-03T16:51:48.485Z,21.40
2023-05-03T16:54:24.314Z,21.50
2023-05-03T16:57:00.193Z,21.80
2023-05-03T16:59:36.091Z,21.70
2023-05-03T17:02:13.884Z,21.90
2023-05-03T17:04:49.746Z,22.20
2023-05-03T17:07:25.593Z,22.60
2023-05-03T17:10:03.431Z,22.50
2023-05-03T17:12:40.478Z,22.30
2023-05-03T17:15:16.901Z,22.70
2023-05-03T17:17:53.559Z,22.80
2023-05-03T17:23:05.980Z,22.80
2023-05-03T17:25:42.671Z,22.80
2023-05-03T17:28:18.541Z,22.90
2023-05-03T17:30:55.711Z,23.00
2023-05-03T17:33:31.600Z,23.30
2023-05-03T17:36:07.788Z,23.70
2023-05-03T17:38:43.655Z,23.80
2023-05-03T17:41:19.472Z,23.60
2023-05-03T17:43:55.392Z,23.70
2023-05-03T17:46:32.983Z,23.70
2023-05-03T17:49:10.693Z,23.60
2023-05-03T17:51:47.363Z,24.00
2023-05-03T17:54:24.488Z,24.20
2023-05-03T17:57:00.327Z,24.30
2023-05-03T17:59:36.260Z,24.30
2023-05-03T18:02:13.373Z,24.30
2023-05-03T18:04:50.673Z,24.60
2023-05-03T18:07:26.952Z,24.50
2023-05-03T18:10:05.515Z,24.60
2023-05-03T18:12:42.406Z,24.80
2023-05-03T18:15:18.411Z,24.80
2023-05-03T18:17:54.278Z,24.80
2023-05-03T18:20:30.932Z,24.90
2023-05-03T18:23:06.808Z,25.10
2023-05-03T18:25:42.653Z,25.00
2023-05-03T18:28:20.706Z,25.10
2023-05-03T18:30:56.643Z,25.30
2023-05-03T18:33:33.935Z,25.30
2023-05-03T18:36:11.667Z,25.50
2023-05-03T18:38:53.024Z,25.60
2023-05-03T18:41:28.910Z,25.50
2023-05-03T18:44:04.913Z,25.90
2023-05-03T18:46:40.845Z,26.10
2023-05-03T18:49:17.370Z,26.40
2023-05-03T18:51:53.271Z,26.50
2023-05-03T18:54:29.121Z,26.60
2023-05-03T18:57:05.106Z,26.60
2023-05-03T18:59:52.517Z,26.80
2023-05-03T19:02:33.338Z,26.90
2023-05-03T19:05:12.153Z,27.00
2023-05-03T19:07:49.916Z,27.20
2023-05-03T19:10:25.830Z,27.30
2023-05-03T19:13:03.128Z,27.40
2023-05-03T19:15:39.029Z,27.50
2023-05-03T19:18:16.768Z,27.50
2023-05-03T19:20:52.789Z,27.60
2023-05-03T19:23:28.664Z,27.60
2023-05-03T19:26:04.939Z,27.80
2023-05-03T19:28:40.778Z,27.70
2023-05-03T19:31:17.703Z,27.80
2023-05-03T19:33:53.648Z,27.90
2023-05-03T19:36:29.793Z,27.90
2023-05-03T19:39:06.700Z,28.00
2023-05-03T19:41:43.446Z,28.10
2023-05-03T19:44:19.755Z,28.10
2023-05-03T19:46:55.835Z,28.20
2023-05-03T19:49:32.715Z,28.20
2023-05-03T19:52:08.565Z,28.20
2023-05-03T19:54:44.393Z,28.40
2023-05-03T19:57:20.228Z,28.40
2023-05-03T19:59:56.071Z,28.40
2023-05-03T20:02:31.965Z,28.40
2023-05-03T20:05:08.350Z,28.50
2023-05-03T20:07:44.187Z,28.50
2023-05-03T20:10:20.144Z,28.60
2023-05-03T20:12:56.079Z,28.70
2023-05-03T20:15:33.790Z,28.80
2023-05-03T20:18:12.683Z,29.00
2023-05-03T20:20:49.470Z,29.00
2023-05-03T20:23:25.533Z,29.10
2023-05-03T20:26:01.706Z,29.30
2023-05-03T20:28:37.651Z,29.40
2023-05-03T20:31:13.586Z,29.40
2023-05-03T20:33:50.711Z,29.50
2023-05-03T20:36:27.986Z,29.70
2023-05-03T20:39:05.090Z,29.70
2023-05-03T20:41:41.242Z,29.90
2023-05-03T20:44:17.205Z,30.00
2023-05-03T20:46:53.121Z,30.00
2023-05-03T20:49:30.095Z,30.00
2023-05-03T20:52:06.267Z,30.10
2023-05-03T20:54:44.969Z,30.20
2023-05-03T20:57:21.274Z,30.40
2023-05-03T20:59:57.247Z,30.60
2023-05-03T21:02:33.129Z,30.70
2023-05-03T21:05:10.584Z,30.80
2023-05-03T21:07:47.978Z,30.90
2023-05-03T21:10:24.054Z,31.10
2023-05-03T21:13:00.079Z,31.10
2023-05-03T21:15:37.275Z,31.20
2023-05-03T21:18:13.233Z,31.20
2023-05-03T21:20:49.215Z,31.30
2023-05-03T21:23:25.133Z,31.30
2023-05-03T21:26:01.079Z,31.30
2023-05-03T21:28:37.240Z,31.50
2023-05-03T21:31:13.167Z,31.70
2023-05-03T21:33:49.005Z,31.70
2023-05-03T21:36:25.173Z,31.80
2023-05-03T21:39:01.038Z,31.90
2023-05-03T21:41:36.988Z,32.00
2023-05-03T21:44:13.337Z,32.10
2023-05-03T21:46:49.259Z,32.20
2023-05-03T21:49:25.347Z,32.30
2023-05-03T21:52:01.169Z,32.40
2023-05-03T21:54:37.070Z,32.40
2023-05-03T21:57:13.762Z,32.60
2023-05-03T21:59:50.003Z,32.70
2023-05-03T22:02:25.985Z,32.60
2023-05-03T22:05:01.920Z,32.70
2023-05-03T22:07:38.395Z,32.70
2023-05-03T22:10:14.390Z,32.80
2023-05-03T22:12:50.323Z,32.90
2023-05-03T22:15:26.522Z,33.10
2023-05-03T22:18:02.637Z,33.20
2023-05-03T22:20:38.529Z,33.00
2023-05-03T22:23:15.556Z,33.20
2023-05-03T22:25:51.389Z,33.30
2023-05-03T22:28:27.266Z,33.40
2023-05-03T22:31:03.373Z,33.40
2023-05-03T22:33:44.712Z,33.60
2023-05-03T22:36:20.561Z,33.70
2023-05-03T22:39:00.624Z,33.80
2023-05-03T22:41:37.037Z,34.30
2023-05-03T22:44:13.114Z,33.90
2023-05-03T22:46:48.943Z,34.00
2023-05-03T22:49:25.033Z,34.10
2023-05-03T22:52:01.528Z,34.20
2023-05-03T22:54:37.352Z,34.10
2023-05-03T22:57:13.299Z,34.20
2023-05-03T22:59:49.158Z,34.20
2023-05-03T23:02:25.104Z,34.30
2023-05-03T23:05:00.990Z,34.70
2023-05-03T23:07:36.870Z,34.50
2023-05-03T23:10:12.719Z,34.50
2023-05-03T23:12:48.768Z,34.60
2023-05-03T23:15:24.999Z,34.60
2023-05-03T23:18:01.273Z,34.70
2023-05-03T23:20:37.612Z,34.60
2023-05-03T23:23:13.460Z,34.60
2023-05-03T23:25:49.287Z,34.70
2023-05-03T23:28:25.539Z,34.80
2023-05-03T23:31:01.956Z,35.10
2023-05-03T23:47:33.522Z,34.60
2023-05-03T23:50:10.346Z,34.50
2023-05-03T23:52:46.573Z,34.60
2023-05-03T23:55:22.518Z,34.70
2023-05-03T23:57:58.326Z,34.50
